createdAt,value
2018-09-08T00:03:01.342Z,11.99
2018-09-08T00:05:30.337Z,11.96
2018-09-08T00:07:58.778Z,11.99
2018-09-08T00:10:27.195Z,12.00
2018-09-08T00:12:55.941Z,12.03
2018-09-08T00:15:29.911Z,12.01
2018-09-08T00:18:03.768Z,12.00
2018-09-08T00:20:37.717Z,12.02
2018-09-08T00:23:11.477Z,12.01
2018-09-08T00:25:45.640Z,12.01
2018-09-08T00:28:32.336Z,11.98
2018-09-08T00:31:01.035Z,11.98
2018-09-08T00:33:29.638Z,11.96
2018-09-08T00:35:58.277Z,11.93
2018-09-08T00:38:26.899Z,11.95
2018-09-08T00:40:55.378Z,11.96
2018-09-08T00:43:23.870Z,11.98
2018-09-08T00:45:52.633Z,11.94
2018-09-08T00:48:21.182Z,11.95
2018-09-08T00:50:49.696Z,11.96
2018-09-08T00:53:18.193Z,11.99
2018-09-08T00:55:46.685Z,11.96
2018-09-08T00:58:15.177Z,11.92
2018-09-08T01:00:43.601Z,11.92
2018-09-08T01:03:12.138Z,11.91
2018-09-08T01:05:40.566Z,11.91
2018-09-08T01:08:09.448Z,11.86
2018-09-08T01:10:37.982Z,11.85
2018-09-08T01:13:06.570Z,11.89
2018-09-08T01:15:35.077Z,11.91
2018-09-08T01:18:03.760Z,11.93
2018-09-08T01:20:32.366Z,11.93
2018-09-08T01:23:00.908Z,11.94
2018-09-08T01:25:29.480Z,11.91
2018-09-08T01:27:57.974Z,11.84
2018-09-08T01:30:26.462Z,11.82
2018-09-08T01:33:23.769Z,11.80
2018-09-08T01:35:52.506Z,11.77
2018-09-08T01:38:21.197Z,11.75
2018-09-08T01:40:49.776Z,11.71
2018-09-08T01:43:18.557Z,11.70
2018-09-08T01:45:47.027Z,11.68
2018-09-08T01:48:15.616Z,11.67
2018-09-08T01:50:44.040Z,11.62
2018-09-08T01:53:12.718Z,11.59
2018-09-08T01:55:41.287Z,11.54
2018-09-08T01:58:09.873Z,11.50
2018-09-08T02:00:38.293Z,11.45
2018-09-08T02:03:07.071Z,11.41
2018-09-08T02:05:35.620Z,11.37
2018-09-08T02:08:04.091Z,11.30
2018-09-08T02:10:32.550Z,11.30
2018-09-08T02:13:01.158Z,11.30
2018-09-08T02:15:29.945Z,11.25
2018-09-08T02:17:58.382Z,11.23
2018-09-08T02:20:26.904Z,11.25
2018-09-08T02:22:55.373Z,11.20
2018-09-08T02:25:23.910Z,11.21
2018-09-08T02:27:52.458Z,11.18
2018-09-08T02:30:20.893Z,11.18
2018-09-08T02:32:49.444Z,11.17
2018-09-08T02:35:17.872Z,11.16
2018-09-08T02:37:46.397Z,11.12
2018-09-08T02:40:14.873Z,11.07
2018-09-08T02:42:43.499Z,11.09
2018-09-08T02:45:11.951Z,11.07
2018-09-08T02:47:40.390Z,11.08
2018-09-08T02:50:20.026Z,11.07
2018-09-08T02:52:47.265Z,11.06
2018-09-08T02:55:14.599Z,11.04
2018-09-08T02:57:41.973Z,11.02
2018-09-08T03:00:09.313Z,11.00
2018-09-08T03:02:36.587Z,11.00
2018-09-08T03:05:21.872Z,11.02
2018-09-08T03:07:49.161Z,11.02
2018-09-08T03:10:16.823Z,11.02
2018-09-08T03:12:44.148Z,11.06
2018-09-08T03:15:11.474Z,11.02
2018-09-08T03:17:38.890Z,10.97
2018-09-08T03:20:06.157Z,10.95
2018-09-08T03:22:33.537Z,10.97
2018-09-08T03:25:00.949Z,10.99
2018-09-08T03:27:28.208Z,10.98
2018-09-08T03:29:55.460Z,10.97
2018-09-08T03:32:22.711Z,10.99
2018-09-08T03:34:49.971Z,10.99
2018-09-08T03:37:17.248Z,10.96
2018-09-08T03:39:44.504Z,10.96
2018-09-08T03:42:11.788Z,10.95
2018-09-08T03:44:39.132Z,10.95
2018-09-08T03:47:07.291Z,10.95
2018-09-08T03:49:39.453Z,10.96
2018-09-08T03:52:06.690Z,10.99
2018-09-08T03:54:33.961Z,11.01
2018-09-08T03:57:01.244Z,11.05
2018-09-08T03:59:28.583Z,11.10
2018-09-08T04:01:55.924Z,11.15
2018-09-08T04:04:24.467Z,11.25
2018-09-08T04:06:52.958Z,11.33
2018-09-08T04:09:21.441Z,11.41
2018-09-08T04:11:49.927Z,11.46
2018-09-08T04:14:18.369Z,11.51
2018-09-08T04:16:46.901Z,11.53
2018-09-08T04:19:15.341Z,11.55
2018-09-08T04:21:43.781Z,11.55
2018-09-08T04:24:12.320Z,11.55
2018-09-08T04:26:40.898Z,11.57
2018-09-08T04:29:09.394Z,11.60
2018-09-08T04:31:37.872Z,11.58
2018-09-08T04:34:06.448Z,11.55
2018-09-08T04:36:34.977Z,11.50
2018-09-08T04:39:03.674Z,11.42
2018-09-08T04:41:32.204Z,11.37
2018-09-08T04:44:00.692Z,11.33
2018-09-08T04:46:29.186Z,11.32
2018-09-08T04:48:57.652Z,11.26
2018-09-08T04:51:39.265Z,11.23
2018-09-08T04:54:07.818Z,11.16
2018-09-08T04:56:36.245Z,11.15
2018-09-08T04:59:05.040Z,11.13
2018-09-08T05:01:33.551Z,11.08
2018-09-08T05:04:02.054Z,11.02
2018-09-08T05:06:30.560Z,10.99
2018-09-08T05:08:59.145Z,10.95
2018-09-08T05:11:27.611Z,10.94
2018-09-08T05:14:01.629Z,10.97
2018-09-08T05:16:30.202Z,10.97
2018-09-08T05:18:58.666Z,10.96
2018-09-08T05:21:27.260Z,10.96
2018-09-08T05:23:55.758Z,10.93
2018-09-08T05:26:24.244Z,10.94
2018-09-08T05:29:20.077Z,10.91
2018-09-08T05:31:48.635Z,10.91
2018-09-08T05:34:17.438Z,10.90
2018-09-08T05:36:45.914Z,10.93
2018-09-08T05:39:14.412Z,10.96
2018-09-08T05:41:42.982Z,10.99
2018-09-08T05:44:11.469Z,11.00
2018-09-08T05:46:39.937Z,11.02
2018-09-08T05:49:08.437Z,11.06
2018-09-08T05:51:36.901Z,11.09
2018-09-08T05:54:05.492Z,11.11
2018-09-08T05:56:33.920Z,11.17
2018-09-08T05:59:02.375Z,11.21
2018-09-08T06:01:30.952Z,11.25
2018-09-08T06:03:59.527Z,11.30
2018-09-08T06:06:28.007Z,11.35
2018-09-08T06:08:56.486Z,11.40
2018-09-08T06:11:24.966Z,11.45
2018-09-08T06:13:53.444Z,11.52
2018-09-08T06:16:22.490Z,11.58
2018-09-08T06:18:50.964Z,11.65
2018-09-08T06:21:19.508Z,11.72
2018-09-08T06:23:47.984Z,11.78
2018-09-08T06:26:16.440Z,11.85
2018-09-08T06:28:44.999Z,11.93
2018-09-08T06:31:13.548Z,12.00
2018-09-08T06:33:42.186Z,12.07
2018-09-08T06:36:10.844Z,12.16
2018-09-08T06:38:39.380Z,12.25
2018-09-08T06:41:07.976Z,12.32
2018-09-08T06:43:36.454Z,12.39
2018-09-08T06:46:04.969Z,12.47
2018-09-08T06:48:33.671Z,12.54
2018-09-08T06:51:02.222Z,12.57
2018-09-08T06:53:30.729Z,12.64
2018-09-08T06:55:59.480Z,12.69
2018-09-08T06:58:27.996Z,12.76
2018-09-08T07:00:56.602Z,12.84
2018-09-08T07:03:25.240Z,12.92
2018-09-08T07:05:53.859Z,13.00
2018-09-08T07:08:22.409Z,13.09
2018-09-08T07:10:50.889Z,13.17
2018-09-08T07:13:19.480Z,13.24
2018-09-08T07:15:48.082Z,13.28
2018-09-08T07:18:18.990Z,13.34
2018-09-08T07:20:47.615Z,13.42
2018-09-08T07:23:21.963Z,13.54
2018-09-08T07:25:50.514Z,13.68
2018-09-08T07:28:19.064Z,13.81
2018-09-08T07:30:47.550Z,13.93
2018-09-08T07:33:16.024Z,14.04
2018-09-08T07:35:44.554Z,14.12
2018-09-08T07:38:13.111Z,14.23
2018-09-08T07:40:50.194Z,14.38
2018-09-08T07:43:18.772Z,14.45
2018-09-08T07:45:47.458Z,14.54
2018-09-08T07:48:15.934Z,14.65
2018-09-08T07:50:44.423Z,14.72
2018-09-08T07:53:12.937Z,14.72
2018-09-08T07:55:41.488Z,14.76
2018-09-08T07:58:09.976Z,14.81
2018-09-08T08:00:38.541Z,14.82
2018-09-08T08:03:07.131Z,14.85
2018-09-08T08:05:35.596Z,14.93
2018-09-08T08:08:04.240Z,15.07
2018-09-08T08:11:18.114Z,15.19
2018-09-08T08:13:46.630Z,15.44
2018-09-08T08:16:15.211Z,15.60
2018-09-08T08:18:43.671Z,15.76
2018-09-08T08:21:12.347Z,15.94
2018-09-08T08:23:41.059Z,16.07
2018-09-08T08:26:10.160Z,16.29
2018-09-08T08:28:38.708Z,16.45
2018-09-08T08:31:07.343Z,16.51
2018-09-08T08:33:35.880Z,16.54
2018-09-08T08:36:04.472Z,16.56
2018-09-08T08:38:32.948Z,16.60
2018-09-08T08:41:01.417Z,16.64
2018-09-08T08:43:29.999Z,16.61
2018-09-08T08:45:58.486Z,16.78
2018-09-08T08:48:27.028Z,16.78
2018-09-08T08:51:06.787Z,16.93
2018-09-08T08:53:46.703Z,17.04
2018-09-08T08:56:15.340Z,16.98
2018-09-08T08:58:43.856Z,16.98
2018-09-08T09:01:12.509Z,16.98
2018-09-08T09:03:42.097Z,16.95
2018-09-08T09:06:10.606Z,17.02
2018-09-08T09:08:39.562Z,17.13
2018-09-08T09:11:07.694Z,17.23
2018-09-08T09:13:36.364Z,17.38
2018-09-08T09:16:04.843Z,17.44
2018-09-08T09:18:45.006Z,17.50
2018-09-08T09:21:24.309Z,17.54
2018-09-08T09:25:06.410Z,17.59
2018-09-08T09:27:43.012Z,17.57
2018-09-08T09:30:11.810Z,17.71
2018-09-08T09:33:06.702Z,17.89
2018-09-08T09:35:35.297Z,18.16
2018-09-08T09:38:04.069Z,18.16
2018-09-08T09:40:32.614Z,18.32
2018-09-08T09:43:01.174Z,18.35
2018-09-08T09:45:29.644Z,18.36
2018-09-08T09:47:58.271Z,18.30
2018-09-08T09:50:26.801Z,18.34
2018-09-08T09:52:55.472Z,18.41
2018-09-08T09:55:23.961Z,18.52
2018-09-08T09:57:52.432Z,18.62
2018-09-08T10:00:26.228Z,18.80
2018-09-08T10:02:59.977Z,18.78
2018-09-08T10:05:28.465Z,18.75
2018-09-08T10:07:57.010Z,18.82
2018-09-08T10:10:27.002Z,18.95
2018-09-08T10:12:55.626Z,18.96
2018-09-08T10:15:24.220Z,19.08
2018-09-08T10:17:52.883Z,19.12
2018-09-08T10:20:22.710Z,19.30
2018-09-08T10:22:51.381Z,19.44
2018-09-08T10:25:27.916Z,19.55
2018-09-08T10:27:56.370Z,19.74
2018-09-08T10:30:25.897Z,19.87
2018-09-08T10:32:54.350Z,19.96
2018-09-08T10:35:22.837Z,20.09
2018-09-08T10:37:51.292Z,19.95
2018-09-08T10:40:19.829Z,19.88
2018-09-08T10:42:48.362Z,19.89
2018-09-08T10:45:16.933Z,19.97
2018-09-08T10:47:46.082Z,20.07
2018-09-08T10:50:14.658Z,20.14
2018-09-08T10:52:44.897Z,20.23
2018-09-08T10:55:13.532Z,20.47
2018-09-08T10:57:42.018Z,20.56
2018-09-08T11:00:11.353Z,20.43
2018-09-08T11:02:40.354Z,20.44
2018-09-08T11:05:08.525Z,20.32
2018-09-08T11:07:37.052Z,20.20
2018-09-08T11:10:06.293Z,20.40
2018-09-08T11:12:34.936Z,20.77
2018-09-08T11:21:49.475Z,20.21
2018-09-08T11:24:18.184Z,19.92
2018-09-08T11:26:46.781Z,19.81
2018-09-08T11:29:16.325Z,19.65
2018-09-08T11:31:45.021Z,19.62
2018-09-08T11:34:13.495Z,19.57
2018-09-08T11:36:41.977Z,19.62
2018-09-08T11:39:10.421Z,19.71
2018-09-08T11:41:39.359Z,20.21
2018-09-08T11:44:07.806Z,20.77
2018-09-08T11:46:36.304Z,21.08
2018-09-08T11:49:04.810Z,20.95
2018-09-08T11:51:33.433Z,21.09
2018-09-08T11:54:01.861Z,21.47
2018-09-08T11:56:30.337Z,21.93
2018-09-08T11:58:58.879Z,21.62
2018-09-08T12:01:27.502Z,21.22
2018-09-08T12:03:56.096Z,20.91
2018-09-08T12:06:24.591Z,20.64
2018-09-08T12:08:53.164Z,20.69
2018-09-08T12:11:21.673Z,20.97
2018-09-08T12:13:50.275Z,20.73
2018-09-08T12:16:18.854Z,20.78
2018-09-08T12:18:47.446Z,21.25
2018-09-08T12:21:15.921Z,21.12
2018-09-08T12:23:44.432Z,20.69
2018-09-08T12:26:12.994Z,20.41
2018-09-08T12:28:41.468Z,20.33
2018-09-08T12:31:10.010Z,20.49
2018-09-08T12:33:38.629Z,20.72
2018-09-08T12:36:07.205Z,20.83
2018-09-08T12:38:35.715Z,20.96
2018-09-08T12:41:04.244Z,20.92
2018-09-08T12:43:32.690Z,20.94
2018-09-08T12:46:01.251Z,21.52
2018-09-08T12:48:30.822Z,22.12
2018-09-08T12:50:59.422Z,22.13
2018-09-08T12:53:28.090Z,21.96
2018-09-08T12:55:56.575Z,22.07
2018-09-08T12:58:25.068Z,21.89
2018-09-08T13:00:53.694Z,21.57
2018-09-08T13:06:44.524Z,21.04
2018-09-08T13:09:13.988Z,20.86
2018-09-08T13:11:42.633Z,21.01
2018-09-08T13:14:17.023Z,21.46
2018-09-08T13:16:45.458Z,22.23
2018-09-08T13:19:13.921Z,22.22
2018-09-08T13:21:42.673Z,22.09
2018-09-08T13:24:11.306Z,22.88
2018-09-08T13:26:39.909Z,23.44
2018-09-08T13:29:09.881Z,23.74
2018-09-08T13:31:38.763Z,23.22
2018-09-08T13:34:07.303Z,22.43
2018-09-08T13:36:35.852Z,21.94
2018-09-08T13:39:05.484Z,21.44
2018-09-08T13:42:00.711Z,21.21
2018-09-08T13:44:29.265Z,21.11
2018-09-08T13:46:57.908Z,21.06
2018-09-08T13:49:26.359Z,20.93
2018-09-08T13:51:54.902Z,20.83
2018-09-08T13:54:23.615Z,20.89
2018-09-08T13:56:52.180Z,21.15
2018-09-08T13:59:20.802Z,21.59
2018-09-08T14:01:49.839Z,21.77
2018-09-08T14:04:18.560Z,21.67
2018-09-08T14:07:18.714Z,21.65
2018-09-08T14:10:00.159Z,21.69
2018-09-08T14:12:28.759Z,21.54
2018-09-08T14:14:57.215Z,21.62
2018-09-08T14:17:25.707Z,21.83
2018-09-08T14:19:54.205Z,21.52
2018-09-08T14:22:36.732Z,21.14
2018-09-08T14:25:05.790Z,21.01
2018-09-08T14:27:34.278Z,21.07
2018-09-08T14:30:02.969Z,21.11
2018-09-08T14:32:31.554Z,21.29
2018-09-08T14:35:00.121Z,21.35
2018-09-08T14:37:28.595Z,21.33
2018-09-08T14:39:57.093Z,21.38
2018-09-08T14:42:25.564Z,21.38
2018-09-08T14:45:25.310Z,21.23
2018-09-08T14:47:53.846Z,21.10
2018-09-08T14:50:22.368Z,20.96
2018-09-08T14:52:50.950Z,20.80
2018-09-08T14:55:19.418Z,20.71
2018-09-08T14:57:47.929Z,20.71
2018-09-08T15:00:16.509Z,20.76
2018-09-08T15:02:45.071Z,20.89
2018-09-08T15:05:13.681Z,20.92
2018-09-08T15:07:42.143Z,21.05
2018-09-08T15:10:10.678Z,21.22
2018-09-08T15:12:39.258Z,21.23
2018-09-08T15:15:08.004Z,21.12
2018-09-08T15:17:36.593Z,20.92
2018-09-08T15:20:26.974Z,20.74
2018-09-08T15:22:56.495Z,20.64
2018-09-08T15:25:24.961Z,20.57
2018-09-08T15:27:53.522Z,20.41
2018-09-08T15:30:43.447Z,20.32
2018-09-08T15:33:11.962Z,20.27
2018-09-08T15:35:45.663Z,20.23
2018-09-08T15:38:14.245Z,20.20
2018-09-08T15:41:00.117Z,20.14
2018-09-08T15:43:28.675Z,20.12
2018-09-08T15:45:57.211Z,20.07
2018-09-08T15:48:25.652Z,20.00
2018-09-08T15:50:54.250Z,19.96
2018-09-08T15:53:22.724Z,19.91
2018-09-08T15:55:51.157Z,19.83
2018-09-08T15:58:19.692Z,19.81
2018-09-08T16:00:48.249Z,19.80
2018-09-08T16:03:16.662Z,19.78
2018-09-08T16:05:45.203Z,19.77
2018-09-08T16:08:13.723Z,19.75
2018-09-08T16:10:42.379Z,19.73
2018-09-08T16:13:10.920Z,19.70
2018-09-08T16:15:39.565Z,19.68
2018-09-08T16:18:09.001Z,19.68
2018-09-08T16:20:37.477Z,19.64
2018-09-08T16:23:18.111Z,19.65
2018-09-08T16:25:46.685Z,19.62
2018-09-08T16:28:15.585Z,19.57
2018-09-08T16:30:44.148Z,19.52
2018-09-08T16:33:12.670Z,19.46
2018-09-08T16:35:41.124Z,19.42
2018-09-08T16:38:09.697Z,19.35
2018-09-08T16:40:38.185Z,19.31
2018-09-08T16:43:06.841Z,19.24
2018-09-08T16:45:35.307Z,19.21
2018-09-08T16:48:03.902Z,19.17
2018-09-08T16:50:46.854Z,19.13
2018-09-08T16:53:15.296Z,19.10
2018-09-08T16:55:43.842Z,19.06
2018-09-08T16:58:12.350Z,19.05
2018-09-08T17:00:40.901Z,19.00
2018-09-08T17:03:09.419Z,18.98
2018-09-08T17:05:37.943Z,18.95
2018-09-08T17:08:07.297Z,18.91
2018-09-08T17:10:35.845Z,18.86
2018-09-08T17:13:04.350Z,18.79
2018-09-08T17:15:32.900Z,18.74
2018-09-08T17:18:01.484Z,18.69
2018-09-08T17:20:29.968Z,18.65
2018-09-08T17:22:58.611Z,18.63
2018-09-08T17:25:27.281Z,18.61
2018-09-08T17:27:55.724Z,18.57
2018-09-08T17:30:24.324Z,18.51
2018-09-08T17:32:52.906Z,18.47
2018-09-08T17:35:21.476Z,18.44
2018-09-08T17:37:49.954Z,18.41
2018-09-08T17:40:18.575Z,18.36
2018-09-08T17:42:47.118Z,18.31
2018-09-08T17:45:15.667Z,18.28
2018-09-08T17:47:44.220Z,18.25
2018-09-08T17:50:12.820Z,18.22
2018-09-08T17:52:41.363Z,18.16
2018-09-08T17:55:09.803Z,18.12
2018-09-08T17:57:38.284Z,18.06
2018-09-08T18:00:07.390Z,18.02
2018-09-08T18:02:35.962Z,18.00
2018-09-08T18:05:04.625Z,17.97
2018-09-08T18:07:33.159Z,17.93
2018-09-08T18:10:17.924Z,17.90
2018-09-08T18:12:46.501Z,17.86
2018-09-08T18:15:16.029Z,17.83
2018-09-08T18:17:44.693Z,17.76
2018-09-08T18:20:13.323Z,17.68
2018-09-08T18:22:41.986Z,17.65
2018-09-08T18:25:24.883Z,17.62
2018-09-08T18:27:53.480Z,17.54
2018-09-08T18:30:21.955Z,17.51
2018-09-08T18:32:50.630Z,17.52
2018-09-08T18:35:19.083Z,17.52
2018-09-08T18:37:47.581Z,17.48
2018-09-08T18:40:16.184Z,17.41
2018-09-08T18:42:45.001Z,17.42
2018-09-08T18:45:13.702Z,17.39
2018-09-08T18:47:42.365Z,17.37
2018-09-08T18:50:11.012Z,17.33
2018-09-08T18:52:39.582Z,17.28
2018-09-08T18:55:08.077Z,17.19
2018-09-08T18:57:36.701Z,17.13
2018-09-08T19:00:05.263Z,17.05
2018-09-08T19:02:33.716Z,17.00
2018-09-08T19:05:03.214Z,16.96
2018-09-08T19:07:31.703Z,16.91
2018-09-08T19:10:06.926Z,16.87
2018-09-08T19:12:36.444Z,16.83
2018-09-08T19:15:10.211Z,16.79
2018-09-08T19:17:39.006Z,16.74
2018-09-08T19:20:12.799Z,16.68
2018-09-08T19:22:41.433Z,16.59
2018-09-08T19:25:09.991Z,16.53
2018-09-08T19:27:39.111Z,16.52
2018-09-08T19:30:07.748Z,16.49
2018-09-08T19:32:36.396Z,16.43
2018-09-08T19:35:10.249Z,16.40
2018-09-08T19:37:54.370Z,16.36
2018-09-08T19:40:28.403Z,16.33
2018-09-08T19:42:57.129Z,16.29
2018-09-08T19:45:25.717Z,16.18
2018-09-08T19:47:59.416Z,16.06
2018-09-08T19:50:27.977Z,15.98
2018-09-08T19:53:02.209Z,15.90
2018-09-08T19:55:31.317Z,15.88
2018-09-08T19:58:05.156Z,15.88
2018-09-08T20:00:33.714Z,15.88
2018-09-08T20:03:02.310Z,15.85
2018-09-08T20:05:30.992Z,15.82
2018-09-08T20:07:59.572Z,15.73
2018-09-08T20:10:28.236Z,15.72
2018-09-08T20:12:56.813Z,15.70
2018-09-08T20:18:48.376Z,15.62
2018-09-08T20:24:42.447Z,15.55
2018-09-08T20:27:10.948Z,15.53
2018-09-08T20:29:39.399Z,15.52
2018-09-08T20:32:07.882Z,15.52
2018-09-08T20:34:36.415Z,15.51
2018-09-08T20:37:05.110Z,15.44
2018-09-08T20:39:33.633Z,15.41
2018-09-08T20:42:02.344Z,15.41
2018-09-08T20:44:30.946Z,15.41
2018-09-08T20:46:59.702Z,15.37
2018-09-08T20:49:28.285Z,15.34
2018-09-08T20:51:58.121Z,15.30
2018-09-08T20:54:30.375Z,15.26
2018-09-08T20:56:59.506Z,15.23
2018-09-08T20:59:27.987Z,15.25
2018-09-08T21:01:56.441Z,15.25
2018-09-08T21:04:25.632Z,15.23
2018-09-08T21:06:54.162Z,15.22
2018-09-08T21:09:22.996Z,15.21
2018-09-08T21:11:51.536Z,15.22
2018-09-08T21:14:20.007Z,15.25
2018-09-08T21:16:48.479Z,15.25
2018-09-08T21:19:51.439Z,15.28
2018-09-08T21:22:19.929Z,15.29
2018-09-08T21:24:55.488Z,15.32
2018-09-08T21:27:23.906Z,15.32
2018-09-08T21:29:52.422Z,15.33
2018-09-08T21:32:21.036Z,15.30
2018-09-08T21:34:49.714Z,15.29
2018-09-08T21:37:18.185Z,15.20
2018-09-08T21:39:46.791Z,15.14
2018-09-08T21:42:15.357Z,15.09
2018-09-08T21:44:43.951Z,15.06
2018-09-08T21:47:25.122Z,15.07
2018-09-08T21:49:53.709Z,15.07
2018-09-08T21:52:22.458Z,15.08
2018-09-08T21:54:51.301Z,15.08
2018-09-08T21:57:19.947Z,15.04
2018-09-08T21:59:48.463Z,14.96
2018-09-08T22:02:17.327Z,14.96
2018-09-08T22:04:45.937Z,14.96
2018-09-08T22:07:15.758Z,14.94
2018-09-08T22:09:44.417Z,14.93
2018-09-08T22:12:13.781Z,14.92
2018-09-08T22:14:42.602Z,14.95
2018-09-08T22:17:11.264Z,14.94
2018-09-08T22:19:39.827Z,14.95
2018-09-08T22:22:08.422Z,15.00
2018-09-08T22:24:36.885Z,15.04
2018-09-08T22:27:06.290Z,15.05
2018-09-08T22:29:34.801Z,15.04
2018-09-08T22:32:04.417Z,15.02
2018-09-08T22:34:33.035Z,14.98
2018-09-08T22:37:07.755Z,14.98
2018-09-08T22:39:36.289Z,14.94
2018-09-08T22:42:04.769Z,14.91
2018-09-08T22:44:33.874Z,14.85
2018-09-08T22:47:02.696Z,14.84
2018-09-08T22:49:31.215Z,14.82
2018-09-08T22:51:59.762Z,14.80
2018-09-08T22:54:28.228Z,14.80
2018-09-08T22:56:56.764Z,14.77
2018-09-08T22:59:25.228Z,14.69
2018-09-08T23:01:53.801Z,14.66
2018-09-08T23:04:22.285Z,14.67
2018-09-08T23:07:25.827Z,14.66
2018-09-08T23:09:54.372Z,14.71
2018-09-08T23:12:22.918Z,14.77
2018-09-08T23:14:51.441Z,14.81
2018-09-08T23:17:19.900Z,14.84
2018-09-08T23:19:48.424Z,14.86
2018-09-08T23:22:16.884Z,14.87
2018-09-08T23:24:46.084Z,14.89
2018-09-08T23:27:14.657Z,14.89
2018-09-08T23:29:43.137Z,14.87
2018-09-08T23:32:11.617Z,14.86
2018-09-08T23:34:40.095Z,14.91
2018-09-08T23:37:08.752Z,14.96
2018-09-08T23:39:37.299Z,15.00
2018-09-08T23:42:05.743Z,15.03
2018-09-08T23:44:34.800Z,15.08
2018-09-08T23:47:03.965Z,15.07
2018-09-08T23:49:32.535Z,15.07
2018-09-08T23:52:01.054Z,15.11
2018-09-08T23:54:29.602Z,15.15
2018-09-08T23:56:58.485Z,15.21
2018-09-08T23:59:27.181Z,15.22
